sensor_id;sensor_type;location;lat;lon;timestamp;P1;durP1;ratioP1;P2;durP2;ratioP2
74344;SDS011;62776;50.518;6.732;2022-12-18T00:01:46;6.88;;;5.30;;
74344;SDS011;62776;50.518;6.732;2022-12-18T00:07:45;9.48;;;5.60;;
74344;SDS011;62776;50.518;6.732;2022-12-18T00:10:37;5.85;;;5.28;;
74344;SDS011;62776;50.518;6.732;2022-12-18T00:13:24;6.40;;;5.70;;
74344;SDS011;62776;50.518;6.732;2022-12-18T00:16:12;7.55;;;5.53;;
74344;SDS011;62776;50.518;6.732;2022-12-18T00:19:00;7.70;;;5.40;;
74344;SDS011;62776;50.518;6.732;2022-12-18T00:21:53;8.35;;;5.88;;
74344;SDS011;62776;50.518;6.732;2022-12-18T00:24:45;6.80;;;6.10;;
74344;SDS011;62776;50.518;6.732;2022-12-18T00:27:43;6.78;;;6.18;;
74344;SDS011;62776;50.518;6.732;2022-12-18T00:30:50;8.52;;;6.45;;
74344;SDS011;62776;50.518;6.732;2022-12-18T00:33:36;5.97;;;5.15;;
74344;SDS011;62776;50.518;6.732;2022-12-18T00:36:28;6.57;;;5.68;;
74344;SDS011;62776;50.518;6.732;2022-12-18T00:39:20;7.07;;;6.05;;
74344;SDS011;62776;50.518;6.732;2022-12-18T00:42:19;7.20;;;6.43;;
74344;SDS011;62776;50.518;6.732;2022-12-18T00:45:28;7.25;;;6.30;;
74344;SDS011;62776;50.518;6.732;2022-12-18T00:48:19;7.63;;;6.82;;
74344;SDS011;62776;50.518;6.732;2022-12-18T00:51:08;7.65;;;6.90;;
74344;SDS011;62776;50.518;6.732;2022-12-18T00:54:05;7.28;;;6.57;;
74344;SDS011;62776;50.518;6.732;2022-12-18T00:56:54;6.63;;;6.03;;
74344;SDS011;62776;50.518;6.732;2022-12-18T00:59:40;8.18;;;6.72;;
74344;SDS011;62776;50.518;6.732;2022-12-18T01:02:32;8.07;;;6.97;;
74344;SDS011;62776;50.518;6.732;2022-12-18T01:05:19;7.70;;;6.90;;
74344;SDS011;62776;50.518;6.732;2022-12-18T01:08:06;7.85;;;7.07;;
74344;SDS011;62776;50.518;6.732;2022-12-18T01:13:55;7.80;;;7.00;;
74344;SDS011;62776;50.518;6.732;2022-12-18T01:16:52;7.45;;;6.75;;
74344;SDS011;62776;50.518;6.732;2022-12-18T01:19:41;8.57;;;7.10;;
74344;SDS011;62776;50.518;6.732;2022-12-18T01:22:28;8.15;;;7.35;;
74344;SDS011;62776;50.518;6.732;2022-12-18T01:25:18;9.73;;;6.97;;
74344;SDS011;62776;50.518;6.732;2022-12-18T01:28:08;8.10;;;7.18;;
74344;SDS011;62776;50.518;6.732;2022-12-18T01:30:54;7.65;;;6.95;;
74344;SDS011;62776;50.518;6.732;2022-12-18T01:33:44;7.90;;;7.10;;
74344;SDS011;62776;50.518;6.732;2022-12-18T01:36:49;8.00;;;7.20;;
74344;SDS011;62776;50.518;6.732;2022-12-18T01:39:38;7.07;;;6.38;;
74344;SDS011;62776;50.518;6.732;2022-12-18T01:42:37;7.63;;;6.82;;
74344;SDS011;62776;50.518;6.732;2022-12-18T01:45:27;8.65;;;7.03;;
74344;SDS011;62776;50.518;6.732;2022-12-18T01:48:15;7.57;;;6.88;;
74344;SDS011;62776;50.518;6.732;2022-12-18T01:51:08;7.75;;;6.97;;
74344;SDS011;62776;50.518;6.732;2022-12-18T01:53:57;6.15;;;5.55;;
74344;SDS011;62776;50.518;6.732;2022-12-18T01:56:55;8.43;;;6.95;;
74344;SDS011;62776;50.518;6.732;2022-12-18T01:59:45;7.72;;;7.00;;
74344;SDS011;62776;50.518;6.732;2022-12-18T02:02:44;7.57;;;6.75;;
74344;SDS011;62776;50.518;6.732;2022-12-18T02:05:29;7.72;;;6.68;;
74344;SDS011;62776;50.518;6.732;2022-12-18T02:11:36;7.20;;;6.50;;
74344;SDS011;62776;50.518;6.732;2022-12-18T02:14:39;7.53;;;6.82;;
74344;SDS011;62776;50.518;6.732;2022-12-18T02:17:39;8.35;;;6.65;;
74344;SDS011;62776;50.518;6.732;2022-12-18T02:20:34;7.43;;;6.75;;
74344;SDS011;62776;50.518;6.732;2022-12-18T02:26:46;6.25;;;5.65;;
74344;SDS011;62776;50.518;6.732;2022-12-18T02:29:48;6.95;;;5.72;;
74344;SDS011;62776;50.518;6.732;2022-12-18T02:32:41;6.32;;;5.68;;
74344;SDS011;62776;50.518;6.732;2022-12-18T02:38:18;6.43;;;5.82;;
74344;SDS011;62776;50.518;6.732;2022-12-18T02:41:04;6.53;;;5.82;;
74344;SDS011;62776;50.518;6.732;2022-12-18T02:44:01;6.47;;;5.88;;
74344;SDS011;62776;50.518;6.732;2022-12-18T02:46:52;6.00;;;5.47;;
74344;SDS011;62776;50.518;6.732;2022-12-18T02:50:22;6.90;;;6.20;;
74344;SDS011;62776;50.518;6.732;2022-12-18T02:56:14;6.53;;;5.93;;
74344;SDS011;62776;50.518;6.732;2022-12-18T02:59:13;8.15;;;6.32;;
74344;SDS011;62776;50.518;6.732;2022-12-18T03:05:47;7.15;;;6.43;;
74344;SDS011;62776;50.518;6.732;2022-12-18T03:11:26;7.43;;;6.63;;
74344;SDS011;62776;50.518;6.732;2022-12-18T03:14:35;6.90;;;6.20;;
74344;SDS011;62776;50.518;6.732;2022-12-18T03:17:26;6.50;;;5.90;;
74344;SDS011;62776;50.518;6.732;2022-12-18T03:20:17;6.35;;;5.75;;
74344;SDS011;62776;50.518;6.732;2022-12-18T03:23:10;6.18;;;5.57;;
74344;SDS011;62776;50.518;6.732;2022-12-18T03:26:03;6.40;;;5.78;;
74344;SDS011;62776;50.518;6.732;2022-12-18T03:28:53;6.82;;;5.53;;
74344;SDS011;62776;50.518;6.732;2022-12-18T03:31:48;6.60;;;6.00;;
74344;SDS011;62776;50.518;6.732;2022-12-18T03:34:38;6.93;;;6.23;;
74344;SDS011;62776;50.518;6.732;2022-12-18T03:37:27;6.50;;;5.65;;
74344;SDS011;62776;50.518;6.732;2022-12-18T03:40:13;6.13;;;5.15;;
74344;SDS011;62776;50.518;6.732;2022-12-18T03:43:02;5.93;;;4.95;;
74344;SDS011;62776;50.518;6.732;2022-12-18T03:46:02;6.18;;;5.53;;
74344;SDS011;62776;50.518;6.732;2022-12-18T03:48:58;6.00;;;5.40;;
74344;SDS011;62776;50.518;6.732;2022-12-18T03:51:50;5.30;;;4.80;;
74344;SDS011;62776;50.518;6.732;2022-12-18T03:54:56;5.65;;;5.13;;
74344;SDS011;62776;50.518;6.732;2022-12-18T03:57:44;5.03;;;4.47;;
74344;SDS011;62776;50.518;6.732;2022-12-18T04:00:33;5.75;;;5.25;;
74344;SDS011;62776;50.518;6.732;2022-12-18T04:03:19;5.30;;;4.80;;
74344;SDS011;62776;50.518;6.732;2022-12-18T04:06:07;6.05;;;4.88;;
74344;SDS011;62776;50.518;6.732;2022-12-18T04:08:54;5.20;;;4.70;;
74344;SDS011;62776;50.518;6.732;2022-12-18T04:11:42;6.07;;;5.53;;
74344;SDS011;62776;50.518;6.732;2022-12-18T04:14:29;7.68;;;6.10;;
74344;SDS011;62776;50.518;6.732;2022-12-18T04:17:15;6.53;;;5.85;;
74344;SDS011;62776;50.518;6.732;2022-12-18T04:20:01;6.78;;;5.82;;
74344;SDS011;62776;50.518;6.732;2022-12-18T04:22:47;5.80;;;5.20;;
74344;SDS011;62776;50.518;6.732;2022-12-18T04:25:33;5.90;;;5.30;;
74344;SDS011;62776;50.518;6.732;2022-12-18T04:28:19;5.82;;;5.32;;
74344;SDS011;62776;50.518;6.732;2022-12-18T04:31:06;6.10;;;5.50;;
74344;SDS011;62776;50.518;6.732;2022-12-18T04:33:52;5.63;;;5.13;;
74344;SDS011;62776;50.518;6.732;2022-12-18T04:36:38;6.30;;;5.70;;
74344;SDS011;62776;50.518;6.732;2022-12-18T04:39:24;6.10;;;5.50;;
74344;SDS011;62776;50.518;6.732;2022-12-18T04:42:10;6.32;;;5.57;;
74344;SDS011;62776;50.518;6.732;2022-12-18T04:44:56;6.95;;;5.70;;
74344;SDS011;62776;50.518;6.732;2022-12-18T04:47:42;7.22;;;6.10;;
74344;SDS011;62776;50.518;6.732;2022-12-18T04:50:29;6.45;;;5.85;;
74344;SDS011;62776;50.518;6.732;2022-12-18T04:53:15;5.35;;;4.85;;
74344;SDS011;62776;50.518;6.732;2022-12-18T04:56:20;5.40;;;4.90;;
74344;SDS011;62776;50.518;6.732;2022-12-18T04:59:06;5.93;;;5.32;;
74344;SDS011;62776;50.518;6.732;2022-12-18T05:01:52;7.10;;;6.28;;
74344;SDS011;62776;50.518;6.732;2022-12-18T05:04:38;6.63;;;5.93;;
74344;SDS011;62776;50.518;6.732;2022-12-18T05:07:24;6.32;;;5.70;;
74344;SDS011;62776;50.518;6.732;2022-12-18T05:10:11;6.03;;;5.43;;
74344;SDS011;62776;50.518;6.732;2022-12-18T05:12:57;5.13;;;4.63;;
74344;SDS011;62776;50.518;6.732;2022-12-18T05:15:43;5.85;;;5.35;;
74344;SDS011;62776;50.518;6.732;2022-12-18T05:18:37;5.57;;;5.07;;
74344;SDS011;62776;50.518;6.732;2022-12-18T05:21:23;5.20;;;4.70;;
74344;SDS011;62776;50.518;6.732;2022-12-18T05:24:09;5.35;;;4.85;;
74344;SDS011;62776;50.518;6.732;2022-12-18T05:26:55;5.20;;;4.70;;
74344;SDS011;62776;50.518;6.732;2022-12-18T05:29:41;5.30;;;4.80;;
74344;SDS011;62776;50.518;6.732;2022-12-18T05:32:27;6.13;;;5.53;;
74344;SDS011;62776;50.518;6.732;2022-12-18T05:35:13;4.07;;;3.78;;
74344;SDS011;62776;50.518;6.732;2022-12-18T05:37:59;6.50;;;5.28;;
74344;SDS011;62776;50.518;6.732;2022-12-18T05:40:47;5.82;;;4.97;;
74344;SDS011;62776;50.518;6.732;2022-12-18T05:43:34;5.50;;;5.00;;
74344;SDS011;62776;50.518;6.732;2022-12-18T05:46:21;6.15;;;5.55;;
74344;SDS011;62776;50.518;6.732;2022-12-18T05:49:07;5.25;;;4.75;;
74344;SDS011;62776;50.518;6.732;2022-12-18T05:51:54;5.03;;;4.53;;
74344;SDS011;62776;50.518;6.732;2022-12-18T05:54:40;5.70;;;4.53;;
74344;SDS011;62776;50.518;6.732;2022-12-18T05:57:26;5.35;;;4.53;;
74344;SDS011;62776;50.518;6.732;2022-12-18T06:00:12;5.72;;;5.07;;
74344;SDS011;62776;50.518;6.732;2022-12-18T06:02:59;5.63;;;5.03;;
74344;SDS011;62776;50.518;6.732;2022-12-18T06:05:45;6.18;;;5.57;;
74344;SDS011;62776;50.518;6.732;2022-12-18T06:08:31;6.05;;;5.15;;
74344;SDS011;62776;50.518;6.732;2022-12-18T06:11:18;6.53;;;5.50;;
74344;SDS011;62776;50.518;6.732;2022-12-18T06:14:06;6.50;;;5.82;;
74344;SDS011;62776;50.518;6.732;2022-12-18T06:16:52;6.18;;;5.57;;
74344;SDS011;62776;50.518;6.732;2022-12-18T06:19:38;6.50;;;5.65;;
74344;SDS011;62776;50.518;6.732;2022-12-18T06:22:24;5.53;;;5.03;;
74344;SDS011;62776;50.518;6.732;2022-12-18T06:25:11;5.78;;;5.20;;
74344;SDS011;62776;50.518;6.732;2022-12-18T06:27:57;5.80;;;5.20;;
74344;SDS011;62776;50.518;6.732;2022-12-18T06:30:44;5.07;;;4.65;;
74344;SDS011;62776;50.518;6.732;2022-12-18T06:33:31;7.13;;;6.43;;
74344;SDS011;62776;50.518;6.732;2022-12-18T06:36:17;6.20;;;5.60;;
74344;SDS011;62776;50.518;6.732;2022-12-18T06:39:04;6.97;;;6.15;;
74344;SDS011;62776;50.518;6.732;2022-12-18T06:41:50;6.72;;;5.78;;
74344;SDS011;62776;50.518;6.732;2022-12-18T06:44:36;7.18;;;6.47;;
74344;SDS011;62776;50.518;6.732;2022-12-18T06:47:22;6.32;;;5.47;;
74344;SDS011;62776;50.518;6.732;2022-12-18T06:50:08;5.82;;;5.22;;
74344;SDS011;62776;50.518;6.732;2022-12-18T06:52:55;6.40;;;5.55;;
74344;SDS011;62776;50.518;6.732;2022-12-18T06:55:41;5.40;;;4.90;;
74344;SDS011;62776;50.518;6.732;2022-12-18T06:58:27;6.35;;;5.75;;
74344;SDS011;62776;50.518;6.732;2022-12-18T07:01:14;6.30;;;5.63;;
74344;SDS011;62776;50.518;6.732;2022-12-18T07:04:00;6.70;;;6.10;;
74344;SDS011;62776;50.518;6.732;2022-12-18T07:06:46;6.18;;;5.57;;
74344;SDS011;62776;50.518;6.732;2022-12-18T07:09:32;6.57;;;5.97;;
74344;SDS011;62776;50.518;6.732;2022-12-18T07:12:18;6.93;;;6.20;;
74344;SDS011;62776;50.518;6.732;2022-12-18T07:15:04;6.40;;;5.80;;
74344;SDS011;62776;50.518;6.732;2022-12-18T07:17:51;6.68;;;6.07;;
74344;SDS011;62776;50.518;6.732;2022-12-18T07:20:37;9.40;;;5.85;;
74344;SDS011;62776;50.518;6.732;2022-12-18T07:23:23;6.57;;;5.88;;
74344;SDS011;62776;50.518;6.732;2022-12-18T07:26:10;7.05;;;5.72;;
74344;SDS011;62776;50.518;6.732;2022-12-18T07:28:57;8.13;;;7.30;;
74344;SDS011;62776;50.518;6.732;2022-12-18T07:31:43;8.05;;;7.25;;
74344;SDS011;62776;50.518;6.732;2022-12-18T07:34:30;10.45;;;6.70;;
74344;SDS011;62776;50.518;6.732;2022-12-18T07:37:16;13.10;;;8.80;;
74344;SDS011;62776;50.518;6.732;2022-12-18T07:40:02;7.50;;;6.70;;
74344;SDS011;62776;50.518;6.732;2022-12-18T07:42:48;7.90;;;7.07;;
74344;SDS011;62776;50.518;6.732;2022-12-18T07:45:34;8.05;;;7.25;;
74344;SDS011;62776;50.518;6.732;2022-12-18T07:48:21;8.18;;;7.07;;
74344;SDS011;62776;50.518;6.732;2022-12-18T07:51:07;7.45;;;6.72;;
74344;SDS011;62776;50.518;6.732;2022-12-18T07:53:53;8.32;;;7.43;;
74344;SDS011;62776;50.518;6.732;2022-12-18T07:56:39;9.00;;;7.00;;
74344;SDS011;62776;50.518;6.732;2022-12-18T07:59:25;7.97;;;7.18;;
74344;SDS011;62776;50.518;6.732;2022-12-18T08:02:11;9.18;;;8.27;;
74344;SDS011;62776;50.518;6.732;2022-12-18T08:04:57;10.35;;;7.38;;
74344;SDS011;62776;50.518;6.732;2022-12-18T08:07:43;7.88;;;7.07;;
74344;SDS011;62776;50.518;6.732;2022-12-18T08:10:30;8.65;;;7.75;;
74344;SDS011;62776;50.518;6.732;2022-12-18T08:13:16;8.48;;;7.57;;
74344;SDS011;62776;50.518;6.732;2022-12-18T08:16:03;7.47;;;6.80;;
74344;SDS011;62776;50.518;6.732;2022-12-18T08:18:51;8.13;;;7.10;;
74344;SDS011;62776;50.518;6.732;2022-12-18T08:21:38;8.48;;;7.57;;
74344;SDS011;62776;50.518;6.732;2022-12-18T08:24:24;8.38;;;7.47;;
74344;SDS011;62776;50.518;6.732;2022-12-18T08:27:10;9.27;;;8.40;;
74344;SDS011;62776;50.518;6.732;2022-12-18T08:29:57;8.43;;;7.13;;
74344;SDS011;62776;50.518;6.732;2022-12-18T08:32:43;7.43;;;6.70;;
74344;SDS011;62776;50.518;6.732;2022-12-18T08:35:29;8.57;;;7.78;;
74344;SDS011;62776;50.518;6.732;2022-12-18T08:38:15;8.43;;;7.63;;
74344;SDS011;62776;50.518;6.732;2022-12-18T08:41:02;11.45;;;7.47;;
74344;SDS011;62776;50.518;6.732;2022-12-18T08:43:50;8.57;;;7.75;;
74344;SDS011;62776;50.518;6.732;2022-12-18T08:46:54;9.65;;;8.65;;
74344;SDS011;62776;50.518;6.732;2022-12-18T08:49:40;8.10;;;7.30;;
74344;SDS011;62776;50.518;6.732;2022-12-18T08:52:27;8.93;;;8.00;;
74344;SDS011;62776;50.518;6.732;2022-12-18T08:55:13;9.43;;;8.52;;
74344;SDS011;62776;50.518;6.732;2022-12-18T08:57:59;10.30;;;8.18;;
74344;SDS011;62776;50.518;6.732;2022-12-18T09:00:45;8.23;;;7.53;;
74344;SDS011;62776;50.518;6.732;2022-12-18T09:03:31;8.68;;;7.80;;
74344;SDS011;62776;50.518;6.732;2022-12-18T09:06:18;9.07;;;8.18;;
74344;SDS011;62776;50.518;6.732;2022-12-18T09:09:05;9.15;;;8.25;;
74344;SDS011;62776;50.518;6.732;2022-12-18T09:11:51;8.57;;;7.68;;
74344;SDS011;62776;50.518;6.732;2022-12-18T09:14:37;9.95;;;8.15;;
74344;SDS011;62776;50.518;6.732;2022-12-18T09:17:24;9.68;;;8.68;;
74344;SDS011;62776;50.518;6.732;2022-12-18T09:20:12;9.02;;;8.15;;
74344;SDS011;62776;50.518;6.732;2022-12-18T09:22:58;9.35;;;8.45;;
74344;SDS011;62776;50.518;6.732;2022-12-18T09:25:44;8.60;;;7.70;;
74344;SDS011;62776;50.518;6.732;2022-12-18T09:28:30;11.18;;;8.05;;
74344;SDS011;62776;50.518;6.732;2022-12-18T09:31:17;8.40;;;7.40;;
74344;SDS011;62776;50.518;6.732;2022-12-18T09:34:04;9.27;;;8.27;;
74344;SDS011;62776;50.518;6.732;2022-12-18T09:36:51;9.25;;;8.35;;
74344;SDS011;62776;50.518;6.732;2022-12-18T09:39:37;8.65;;;7.57;;
74344;SDS011;62776;50.518;6.732;2022-12-18T09:42:23;9.18;;;8.27;;
74344;SDS011;62776;50.518;6.732;2022-12-18T09:45:11;8.48;;;7.38;;
74344;SDS011;62776;50.518;6.732;2022-12-18T09:47:59;11.93;;;9.75;;
74344;SDS011;62776;50.518;6.732;2022-12-18T09:50:46;9.70;;;8.70;;
74344;SDS011;62776;50.518;6.732;2022-12-18T09:53:34;8.95;;;8.05;;
74344;SDS011;62776;50.518;6.732;2022-12-18T09:56:22;9.63;;;8.63;;
74344;SDS011;62776;50.518;6.732;2022-12-18T09:59:36;9.77;;;8.73;;
74344;SDS011;62776;50.518;6.732;2022-12-18T10:02:26;10.05;;;9.07;;
74344;SDS011;62776;50.518;6.732;2022-12-18T10:05:16;9.80;;;8.77;;
74344;SDS011;62776;50.518;6.732;2022-12-18T10:08:24;9.35;;;8.25;;
74344;SDS011;62776;50.518;6.732;2022-12-18T10:11:28;9.20;;;8.27;;
74344;SDS011;62776;50.518;6.732;2022-12-18T10:17:39;10.80;;;9.30;;
74344;SDS011;62776;50.518;6.732;2022-12-18T10:20:36;11.85;;;10.63;;
74344;SDS011;62776;50.518;6.732;2022-12-18T10:23:28;12.23;;;11.02;;
74344;SDS011;62776;50.518;6.732;2022-12-18T10:26:24;12.60;;;11.35;;
74344;SDS011;62776;50.518;6.732;2022-12-18T10:29:12;9.75;;;8.80;;
74344;SDS011;62776;50.518;6.732;2022-12-18T10:31:59;11.35;;;10.25;;
74344;SDS011;62776;50.518;6.732;2022-12-18T10:34:48;10.57;;;9.52;;
74344;SDS011;62776;50.518;6.732;2022-12-18T10:37:36;11.25;;;10.15;;
74344;SDS011;62776;50.518;6.732;2022-12-18T10:43:46;9.98;;;8.98;;
74344;SDS011;62776;50.518;6.732;2022-12-18T10:46:32;24.35;;;21.75;;
74344;SDS011;62776;50.518;6.732;2022-12-18T10:49:19;11.18;;;10.07;;
74344;SDS011;62776;50.518;6.732;2022-12-18T10:52:21;10.27;;;9.18;;
74344;SDS011;62776;50.518;6.732;2022-12-18T10:55:13;12.25;;;11.10;;
74344;SDS011;62776;50.518;6.732;2022-12-18T10:58:36;10.75;;;9.85;;
74344;SDS011;62776;50.518;6.732;2022-12-18T11:01:18;10.65;;;9.65;;
74344;SDS011;62776;50.518;6.732;2022-12-18T11:04:08;11.52;;;10.43;;
74344;SDS011;62776;50.518;6.732;2022-12-18T11:07:07;10.25;;;9.25;;
74344;SDS011;62776;50.518;6.732;2022-12-18T11:10:00;12.38;;;10.07;;
74344;SDS011;62776;50.518;6.732;2022-12-18T11:12:47;11.18;;;8.77;;
74344;SDS011;62776;50.518;6.732;2022-12-18T11:15:34;10.02;;;9.07;;
74344;SDS011;62776;50.518;6.732;2022-12-18T11:18:27;10.82;;;9.73;;
74344;SDS011;62776;50.518;6.732;2022-12-18T11:21:14;11.52;;;10.38;;
74344;SDS011;62776;50.518;6.732;2022-12-18T11:24:01;11.00;;;9.90;;
74344;SDS011;62776;50.518;6.732;2022-12-18T11:26:47;11.07;;;10.07;;
74344;SDS011;62776;50.518;6.732;2022-12-18T11:29:34;11.02;;;10.02;;
74344;SDS011;62776;50.518;6.732;2022-12-18T11:32:26;11.68;;;10.40;;
74344;SDS011;62776;50.518;6.732;2022-12-18T11:35:42;13.13;;;10.38;;
74344;SDS011;62776;50.518;6.732;2022-12-18T11:38:41;11.95;;;10.50;;
74344;SDS011;62776;50.518;6.732;2022-12-18T11:44:43;12.93;;;10.15;;
74344;SDS011;62776;50.518;6.732;2022-12-18T11:47:44;10.95;;;9.85;;
74344;SDS011;62776;50.518;6.732;2022-12-18T11:50:53;12.20;;;11.05;;
74344;SDS011;62776;50.518;6.732;2022-12-18T11:53:41;11.88;;;10.77;;
74344;SDS011;62776;50.518;6.732;2022-12-18T12:02:34;11.48;;;10.38;;
74344;SDS011;62776;50.518;6.732;2022-12-18T12:08:48;13.25;;;10.73;;
74344;SDS011;62776;50.518;6.732;2022-12-18T12:11:43;10.75;;;9.65;;
74344;SDS011;62776;50.518;6.732;2022-12-18T12:14:58;11.48;;;10.32;;
74344;SDS011;62776;50.518;6.732;2022-12-18T12:18:17;11.43;;;10.30;;
74344;SDS011;62776;50.518;6.732;2022-12-18T12:24:43;10.95;;;9.85;;
74344;SDS011;62776;50.518;6.732;2022-12-18T12:27:38;11.52;;;10.43;;
74344;SDS011;62776;50.518;6.732;2022-12-18T12:30:30;11.32;;;10.25;;
74344;SDS011;62776;50.518;6.732;2022-12-18T12:33:43;10.88;;;9.77;;
74344;SDS011;62776;50.518;6.732;2022-12-18T12:40:00;10.35;;;9.35;;
74344;SDS011;62776;50.518;6.732;2022-12-18T12:42:49;9.85;;;8.85;;
74344;SDS011;62776;50.518;6.732;2022-12-18T12:46:03;10.85;;;9.75;;
74344;SDS011;62776;50.518;6.732;2022-12-18T12:48:58;10.13;;;9.13;;
74344;SDS011;62776;50.518;6.732;2022-12-18T12:51:50;10.18;;;9.18;;
74344;SDS011;62776;50.518;6.732;2022-12-18T12:54:45;10.75;;;9.65;;
74344;SDS011;62776;50.518;6.732;2022-12-18T12:57:34;12.82;;;11.52;;
74344;SDS011;62776;50.518;6.732;2022-12-18T13:00:24;10.50;;;9.50;;
74344;SDS011;62776;50.518;6.732;2022-12-18T13:03:18;15.60;;;14.07;;
74344;SDS011;62776;50.518;6.732;2022-12-18T13:09:23;12.55;;;11.35;;
74344;SDS011;62776;50.518;6.732;2022-12-18T13:12:11;10.48;;;9.48;;
74344;SDS011;62776;50.518;6.732;2022-12-18T13:15:20;11.52;;;10.45;;
74344;SDS011;62776;50.518;6.732;2022-12-18T13:18:29;9.80;;;8.82;;
74344;SDS011;62776;50.518;6.732;2022-12-18T13:21:34;10.05;;;9.05;;
74344;SDS011;62776;50.518;6.732;2022-12-18T13:24:27;11.07;;;10.07;;
74344;SDS011;62776;50.518;6.732;2022-12-18T13:39:30;11.38;;;10.27;;
74344;SDS011;62776;50.518;6.732;2022-12-18T13:45:42;9.60;;;8.70;;
74344;SDS011;62776;50.518;6.732;2022-12-18T13:48:31;10.38;;;9.38;;
74344;SDS011;62776;50.518;6.732;2022-12-18T13:51:21;9.63;;;8.73;;
74344;SDS011;62776;50.518;6.732;2022-12-18T13:57:33;10.27;;;9.27;;
74344;SDS011;62776;50.518;6.732;2022-12-18T14:00:26;10.15;;;8.52;;
74344;SDS011;62776;50.518;6.732;2022-12-18T14:03:16;9.35;;;8.45;;
74344;SDS011;62776;50.518;6.732;2022-12-18T14:06:05;9.75;;;8.95;;
74344;SDS011;62776;50.518;6.732;2022-12-18T14:08:53;9.13;;;8.23;;
74344;SDS011;62776;50.518;6.732;2022-12-18T14:11:40;11.32;;;10.23;;
74344;SDS011;62776;50.518;6.732;2022-12-18T14:14:31;13.07;;;11.68;;
74344;SDS011;62776;50.518;6.732;2022-12-18T14:17:18;16.50;;;14.77;;
74344;SDS011;62776;50.518;6.732;2022-12-18T14:20:04;12.90;;;11.70;;
74344;SDS011;62776;50.518;6.732;2022-12-18T14:23:00;17.10;;;15.50;;
74344;SDS011;62776;50.518;6.732;2022-12-18T14:25:46;10.02;;;9.13;;
74344;SDS011;62776;50.518;6.732;2022-12-18T14:28:32;13.07;;;11.88;;
74344;SDS011;62776;50.518;6.732;2022-12-18T14:31:29;11.23;;;10.13;;
74344;SDS011;62776;50.518;6.732;2022-12-18T14:34:16;10.10;;;9.15;;
74344;SDS011;62776;50.518;6.732;2022-12-18T14:37:04;8.95;;;8.15;;
74344;SDS011;62776;50.518;6.732;2022-12-18T14:39:52;9.85;;;8.95;;
74344;SDS011;62776;50.518;6.732;2022-12-18T14:42:40;10.20;;;9.25;;
74344;SDS011;62776;50.518;6.732;2022-12-18T14:45:33;10.68;;;9.63;;
74344;SDS011;62776;50.518;6.732;2022-12-18T14:48:33;9.27;;;8.38;;
74344;SDS011;62776;50.518;6.732;2022-12-18T14:51:20;10.23;;;9.25;;
74344;SDS011;62776;50.518;6.732;2022-12-18T14:54:14;10.25;;;9.25;;
74344;SDS011;62776;50.518;6.732;2022-12-18T15:00:05;10.05;;;9.15;;
74344;SDS011;62776;50.518;6.732;2022-12-18T15:03:00;9.90;;;8.90;;
74344;SDS011;62776;50.518;6.732;2022-12-18T15:05:46;9.43;;;8.52;;
74344;SDS011;62776;50.518;6.732;2022-12-18T15:08:36;10.38;;;9.38;;
74344;SDS011;62776;50.518;6.732;2022-12-18T15:11:56;11.02;;;10.02;;
74344;SDS011;62776;50.518;6.732;2022-12-18T15:14:40;10.70;;;9.70;;
74344;SDS011;62776;50.518;6.732;2022-12-18T15:17:27;10.48;;;9.48;;
74344;SDS011;62776;50.518;6.732;2022-12-18T15:20:13;11.50;;;10.38;;
74344;SDS011;62776;50.518;6.732;2022-12-18T15:22:59;12.50;;;11.30;;
74344;SDS011;62776;50.518;6.732;2022-12-18T15:25:46;12.13;;;10.93;;
74344;SDS011;62776;50.518;6.732;2022-12-18T15:31:34;12.02;;;10.82;;
74344;SDS011;62776;50.518;6.732;2022-12-18T15:34:21;12.15;;;10.88;;
74344;SDS011;62776;50.518;6.732;2022-12-18T15:37:07;11.70;;;10.50;;
74344;SDS011;62776;50.518;6.732;2022-12-18T15:39:53;11.48;;;10.43;;
74344;SDS011;62776;50.518;6.732;2022-12-18T15:42:40;11.93;;;10.73;;
74344;SDS011;62776;50.518;6.732;2022-12-18T15:45:45;11.88;;;10.68;;
74344;SDS011;62776;50.518;6.732;2022-12-18T15:48:35;13.73;;;11.43;;
74344;SDS011;62776;50.518;6.732;2022-12-18T15:51:28;11.32;;;10.20;;
74344;SDS011;62776;50.518;6.732;2022-12-18T15:54:19;11.38;;;10.27;;
74344;SDS011;62776;50.518;6.732;2022-12-18T15:57:25;12.00;;;10.75;;
74344;SDS011;62776;50.518;6.732;2022-12-18T16:00:11;12.18;;;10.88;;
74344;SDS011;62776;50.518;6.732;2022-12-18T16:02:58;12.52;;;11.23;;
74344;SDS011;62776;50.518;6.732;2022-12-18T16:05:44;14.63;;;11.70;;
74344;SDS011;62776;50.518;6.732;2022-12-18T16:08:30;12.88;;;10.40;;
74344;SDS011;62776;50.518;6.732;2022-12-18T16:11:30;13.13;;;11.82;;
74344;SDS011;62776;50.518;6.732;2022-12-18T16:14:25;11.23;;;10.00;;
74344;SDS011;62776;50.518;6.732;2022-12-18T16:17:13;11.32;;;10.23;;
74344;SDS011;62776;50.518;6.732;2022-12-18T16:20:00;12.35;;;11.10;;
74344;SDS011;62776;50.518;6.732;2022-12-18T16:22:46;11.73;;;10.52;;
74344;SDS011;62776;50.518;6.732;2022-12-18T16:25:33;11.30;;;10.20;;
74344;SDS011;62776;50.518;6.732;2022-12-18T16:28:19;12.05;;;10.85;;
74344;SDS011;62776;50.518;6.732;2022-12-18T16:31:07;11.10;;;10.00;;
74344;SDS011;62776;50.518;6.732;2022-12-18T16:37:09;11.48;;;10.27;;
74344;SDS011;62776;50.518;6.732;2022-12-18T16:39:56;14.98;;;10.85;;
74344;SDS011;62776;50.518;6.732;2022-12-18T16:42:43;12.60;;;11.25;;
74344;SDS011;62776;50.518;6.732;2022-12-18T16:45:30;13.85;;;12.35;;
74344;SDS011;62776;50.518;6.732;2022-12-18T16:48:17;13.15;;;11.85;;
74344;SDS011;62776;50.518;6.732;2022-12-18T16:51:04;13.48;;;12.10;;
74344;SDS011;62776;50.518;6.732;2022-12-18T16:53:50;12.88;;;11.32;;
74344;SDS011;62776;50.518;6.732;2022-12-18T16:56:37;12.00;;;10.73;;
74344;SDS011;62776;50.518;6.732;2022-12-18T16:59:24;12.35;;;11.05;;
74344;SDS011;62776;50.518;6.732;2022-12-18T17:02:15;14.38;;;12.35;;
74344;SDS011;62776;50.518;6.732;2022-12-18T17:05:03;12.48;;;11.18;;
74344;SDS011;62776;50.518;6.732;2022-12-18T17:07:49;11.90;;;10.70;;
74344;SDS011;62776;50.518;6.732;2022-12-18T17:10:35;12.20;;;11.00;;
74344;SDS011;62776;50.518;6.732;2022-12-18T17:13:21;14.45;;;12.73;;
74344;SDS011;62776;50.518;6.732;2022-12-18T17:16:10;14.15;;;12.30;;
74344;SDS011;62776;50.518;6.732;2022-12-18T17:18:56;13.63;;;11.88;;
74344;SDS011;62776;50.518;6.732;2022-12-18T17:21:43;15.73;;;13.23;;
74344;SDS011;62776;50.518;6.732;2022-12-18T17:24:31;13.98;;;12.48;;
74344;SDS011;62776;50.518;6.732;2022-12-18T17:27:17;17.33;;;14.18;;
74344;SDS011;62776;50.518;6.732;2022-12-18T17:30:04;14.38;;;12.45;;
74344;SDS011;62776;50.518;6.732;2022-12-18T17:32:50;16.77;;;13.00;;
74344;SDS011;62776;50.518;6.732;2022-12-18T17:35:36;14.30;;;12.25;;
74344;SDS011;62776;50.518;6.732;2022-12-18T17:38:22;13.98;;;11.65;;
74344;SDS011;62776;50.518;6.732;2022-12-18T17:41:09;15.65;;;14.05;;
74344;SDS011;62776;50.518;6.732;2022-12-18T17:43:57;14.80;;;13.15;;
74344;SDS011;62776;50.518;6.732;2022-12-18T17:46:44;14.52;;;12.60;;
74344;SDS011;62776;50.518;6.732;2022-12-18T17:49:31;15.20;;;13.48;;
74344;SDS011;62776;50.518;6.732;2022-12-18T17:52:17;16.55;;;14.10;;
74344;SDS011;62776;50.518;6.732;2022-12-18T17:55:03;16.77;;;14.27;;
74344;SDS011;62776;50.518;6.732;2022-12-18T17:57:49;15.35;;;13.75;;
74344;SDS011;62776;50.518;6.732;2022-12-18T18:00:37;16.08;;;14.38;;
74344;SDS011;62776;50.518;6.732;2022-12-18T18:03:24;19.38;;;16.50;;
74344;SDS011;62776;50.518;6.732;2022-12-18T18:06:10;15.68;;;14.10;;
74344;SDS011;62776;50.518;6.732;2022-12-18T18:08:56;16.67;;;14.52;;
74344;SDS011;62776;50.518;6.732;2022-12-18T18:11:43;15.82;;;14.10;;
74344;SDS011;62776;50.518;6.732;2022-12-18T18:14:47;14.85;;;13.05;;
74344;SDS011;62776;50.518;6.732;2022-12-18T18:17:33;16.25;;;13.82;;